Sumifukumaru No.5 — JD3058 — position and weather

sailwx.info

Track history (hours):
 
Tides and Currents Weather Stations Pressure Air Temp Water Temp Dewpoint Dewpoint Depression Visibility Wind Speed Wind Dir Waves Ship Positions

Sumifukumaru No.5

Last reported at 2014-Jul-24 05:34 UTC. Time now 2014-Jul-24 06:24 UTC.
Position N 35°38' E 139°48'.

Length 75 m; draft 4.4 m.

Type: Cargo ship. MMSI: 431001371.

Date/timePositionNaut miles runAvg speedWind from/ knotsBaromVisibWave heightAir tempDewpointWater temp
2014-Jul-24 05:34N 35°38' E 139°48'9 9.4
2014-Jul-24 04:33N 35°29' E 139°51'1211.7
2014-Jul-24 03:33N 35°19' E 139°44'1110.9
2014-Jul-24 02:33N 35°08' E 139°46'1211.0
2014-Jul-24 01:31N 34°60' E 139°36'  
2014-Jul-14 19:04N 34°48' E 139°19'8 9.9
2014-Jul-14 18:14N 34°50' E 139°29'710.6
2014-Jul-14 17:33N 34°51' E 139°38'2210.7
2014-Jul-14 15:30N 34°56' E 140°03'66 8.3
2014-Jul-14 07:33N 35°55' E 140°40'1 0.6
2014-Jul-14 06:24N 35°56' E 140°40'  
Track history (hours):
 
Tides and Currents Weather Stations Pressure Air Temp Water Temp Dewpoint Dewpoint Depression Visibility Wind Speed Wind Dir Waves Ship Positions

Sumifukumaru No.5

Last reported at 2014-Jul-24 05:34 UTC. Time now 2014-Jul-24 06:24 UTC.
Position N 35°38' E 139°48'.

Length 75 m; draft 4.4 m.

Type: Cargo ship. MMSI: 431001371.

Date/timePositionNaut miles runAvg speedWind from/ knotsBaromVisibWave heightAir tempDewpointWater temp
2014-Jul-24 05:34N 35°38' E 139°48'9 9.4
2014-Jul-24 04:33N 35°29' E 139°51'1211.7
2014-Jul-24 03:33N 35°19' E 139°44'1110.9
2014-Jul-24 02:33N 35°08' E 139°46'1211.0
2014-Jul-24 01:31N 34°60' E 139°36'  
2014-Jul-14 19:04N 34°48' E 139°19'8 9.9
2014-Jul-14 18:14N 34°50' E 139°29'710.6
2014-Jul-14 17:33N 34°51' E 139°38'2210.7
2014-Jul-14 15:30N 34°56' E 140°03'66 8.3
2014-Jul-14 07:33N 35°55' E 140°40'1 0.6
2014-Jul-14 06:24N 35°56' E 140°40'  

Dump ship's entire track history